createdAt,value
2019-01-14T00:00:14.926Z,88.60
2019-01-14T00:02:43.499Z,87.90
2019-01-14T00:05:11.955Z,87.60
2019-01-14T00:07:40.363Z,87.70
2019-01-14T00:10:08.943Z,87.30
2019-01-14T00:12:37.354Z,86.80
2019-01-14T00:15:09.644Z,86.90
2019-01-14T00:17:38.124Z,87.00
2019-01-14T00:20:12.407Z,87.50
2019-01-14T00:22:40.820Z,88.40
2019-01-14T00:25:09.434Z,89.10
2019-01-14T00:27:37.895Z,89.60
2019-01-14T00:30:12.401Z,89.50
2019-01-14T00:32:40.818Z,89.90
2019-01-14T00:35:09.490Z,88.80
2019-01-14T00:37:37.897Z,88.80
2019-01-14T00:40:09.716Z,88.50
2019-01-14T00:42:38.602Z,88.70
2019-01-14T00:45:07.940Z,87.80
2019-01-14T00:47:36.802Z,86.80
2019-01-14T00:50:08.122Z,87.20
2019-01-14T00:52:36.540Z,87.70
2019-01-14T00:55:06.977Z,87.50
2019-01-14T00:57:35.410Z,87.80
2019-01-14T01:00:07.074Z,87.90
2019-01-14T01:02:35.487Z,87.30
2019-01-14T01:05:05.282Z,88.20
2019-01-14T01:07:33.735Z,87.50
2019-01-14T01:10:02.194Z,87.20
2019-01-14T01:12:30.646Z,87.80
2019-01-14T01:14:59.054Z,88.50
2019-01-14T01:17:27.501Z,88.40
2019-01-14T01:19:55.907Z,88.80
2019-01-14T01:22:24.328Z,89.10
2019-01-14T01:24:52.749Z,88.60
2019-01-14T01:27:21.169Z,88.20
2019-01-14T01:29:49.561Z,88.40
2019-01-14T01:32:17.959Z,88.40
2019-01-14T01:34:46.400Z,87.90
2019-01-14T01:37:15.385Z,88.40
2019-01-14T01:39:44.085Z,89.30
2019-01-14T01:42:12.474Z,88.60
2019-01-14T01:44:40.893Z,88.40
2019-01-14T01:47:09.302Z,88.40
2019-01-14T01:49:37.734Z,88.20
2019-01-14T01:52:06.122Z,88.30
2019-01-14T01:54:34.571Z,88.00
2019-01-14T01:57:03.331Z,87.30
2019-01-14T01:59:31.786Z,86.00
2019-01-14T02:02:00.252Z,86.60
2019-01-14T02:04:28.996Z,85.80
2019-01-14T02:06:57.397Z,85.00
2019-01-14T02:09:25.870Z,85.20
2019-01-14T02:11:54.295Z,81.80
2019-01-14T02:14:23.012Z,81.70
2019-01-14T02:16:51.439Z,81.40
2019-01-14T02:19:19.876Z,81.60
2019-01-14T02:21:48.283Z,80.40
2019-01-14T02:24:16.710Z,80.10
2019-01-14T02:26:45.142Z,76.70
2019-01-14T02:29:13.609Z,77.40
2019-01-14T02:31:42.047Z,76.50
2019-01-14T02:34:10.773Z,76.80
2019-01-14T02:36:47.991Z,75.00
2019-01-14T02:39:09.405Z,75.70
2019-01-14T02:41:37.817Z,75.20
2019-01-14T02:44:06.313Z,74.90
2019-01-14T02:46:34.715Z,74.80
2019-01-14T02:49:03.136Z,75.50
2019-01-14T02:51:31.878Z,74.80
2019-01-14T02:54:00.306Z,74.90
2019-01-14T02:56:29.057Z,74.60
2019-01-14T02:58:57.833Z,73.90
2019-01-14T03:01:26.227Z,74.10
2019-01-14T03:03:54.727Z,73.00
2019-01-14T03:06:23.112Z,73.20
2019-01-14T03:08:51.553Z,72.60
2019-01-14T03:11:19.949Z,72.80
2019-01-14T03:13:48.395Z,72.80
2019-01-14T03:16:16.808Z,73.40
2019-01-14T03:18:45.344Z,73.20
2019-01-14T03:21:13.751Z,74.00
2019-01-14T03:23:42.149Z,74.50
2019-01-14T03:26:10.589Z,74.20
2019-01-14T03:28:38.994Z,73.90
2019-01-14T03:31:07.467Z,73.20
2019-01-14T03:33:35.866Z,72.60
2019-01-14T03:36:04.659Z,73.00
2019-01-14T03:38:33.047Z,72.80
2019-01-14T03:41:01.476Z,73.60
2019-01-14T03:43:29.907Z,72.60
2019-01-14T03:45:58.338Z,71.80
2019-01-14T03:48:26.735Z,71.00
2019-01-14T03:50:55.193Z,71.20
2019-01-14T03:53:23.629Z,72.20
2019-01-14T03:55:52.082Z,72.10
2019-01-14T03:58:20.477Z,71.10
2019-01-14T04:00:48.896Z,70.90
2019-01-14T04:03:17.657Z,71.20
2019-01-14T04:05:46.114Z,71.10
2019-01-14T04:08:14.511Z,70.40
2019-01-14T04:10:43.113Z,69.90
2019-01-14T04:13:11.505Z,69.80
2019-01-14T04:15:39.984Z,70.60
2019-01-14T04:18:08.467Z,71.50
2019-01-14T04:20:36.916Z,72.00
2019-01-14T04:23:05.331Z,72.80
2019-01-14T04:25:33.803Z,72.60
2019-01-14T04:28:02.208Z,73.10
2019-01-14T04:30:30.974Z,72.80
2019-01-14T04:32:59.377Z,72.70
2019-01-14T04:35:27.802Z,73.30
2019-01-14T04:37:56.238Z,73.20
2019-01-14T04:40:24.666Z,73.80
2019-01-14T04:42:53.097Z,74.10
2019-01-14T04:45:21.871Z,74.40
2019-01-14T04:47:50.280Z,74.80
2019-01-14T04:50:22.054Z,75.10
2019-01-14T04:52:50.520Z,74.90
2019-01-14T04:55:19.217Z,75.50
2019-01-14T04:57:47.629Z,75.30
2019-01-14T05:00:18.602Z,75.90
2019-01-14T05:02:47.059Z,76.00
2019-01-14T05:05:15.992Z,75.10
2019-01-14T05:07:44.599Z,75.90
2019-01-14T05:10:16.414Z,75.90
2019-01-14T05:12:44.823Z,75.60
2019-01-14T05:15:13.646Z,76.40
2019-01-14T05:17:42.118Z,76.70
2019-01-14T05:20:25.141Z,76.30
2019-01-14T05:22:54.486Z,75.60
2019-01-14T05:25:23.032Z,77.10
2019-01-14T05:27:51.477Z,76.90
2019-01-14T05:30:20.623Z,77.30
2019-01-14T05:32:49.083Z,76.80
2019-01-14T05:35:17.578Z,76.50
2019-01-14T05:37:46.084Z,75.80
2019-01-14T05:40:17.049Z,75.50
2019-01-14T05:42:45.486Z,76.10
2019-01-14T05:45:14.150Z,76.40
2019-01-14T05:47:42.573Z,76.60
2019-01-14T05:50:13.616Z,76.70
2019-01-14T05:52:42.050Z,76.50
2019-01-14T05:55:12.018Z,76.50
2019-01-14T05:57:40.741Z,76.00
2019-01-14T06:00:12.245Z,74.70
2019-01-14T06:02:40.670Z,75.20
2019-01-14T06:05:09.174Z,75.20
2019-01-14T06:07:44.685Z,75.20
2019-01-14T06:10:09.104Z,75.00
2019-01-14T06:12:37.685Z,75.00
2019-01-14T06:15:12.323Z,74.70
2019-01-14T06:17:41.178Z,75.50
2019-01-14T06:20:12.768Z,75.30
2019-01-14T06:22:41.193Z,75.20
2019-01-14T06:25:11.942Z,74.60
2019-01-14T06:27:40.586Z,75.00
2019-01-14T06:30:15.033Z,74.70
2019-01-14T06:32:43.789Z,74.70
2019-01-14T06:35:12.457Z,75.20
2019-01-14T06:37:40.909Z,75.20
2019-01-14T06:40:13.080Z,74.70
2019-01-14T06:42:41.509Z,75.00
2019-01-14T06:45:11.039Z,75.00
2019-01-14T06:47:39.493Z,74.60
2019-01-14T06:50:13.473Z,75.20
2019-01-14T06:52:41.914Z,75.50
2019-01-14T06:55:10.680Z,75.90
2019-01-14T06:57:39.093Z,75.50
2019-01-14T07:00:10.567Z,76.90
2019-01-14T07:02:38.993Z,74.90
2019-01-14T07:05:08.633Z,75.70
2019-01-14T07:07:37.052Z,75.00
2019-01-14T07:10:19.998Z,73.80
2019-01-14T07:12:48.558Z,74.20
2019-01-14T07:15:17.069Z,73.40
2019-01-14T07:17:45.503Z,73.30
2019-01-14T07:20:14.742Z,73.70
2019-01-14T07:22:43.241Z,73.60
2019-01-14T07:25:11.988Z,73.80
2019-01-14T07:27:40.590Z,73.80
2019-01-14T07:30:14.704Z,74.40
2019-01-14T07:32:43.229Z,75.00
2019-01-14T07:35:12.615Z,75.60
2019-01-14T07:37:41.165Z,75.60
2019-01-14T07:40:12.248Z,75.20
2019-01-14T07:42:40.748Z,75.30
2019-01-14T07:45:12.358Z,75.60
2019-01-14T07:47:40.801Z,75.30
2019-01-14T07:50:12.345Z,75.20
2019-01-14T07:52:41.325Z,74.60
2019-01-14T07:55:09.887Z,74.70
2019-01-14T07:57:38.898Z,74.10
2019-01-14T08:00:13.115Z,73.30
2019-01-14T08:02:41.567Z,73.70
2019-01-14T08:05:09.969Z,73.50
2019-01-14T08:07:38.469Z,72.00
2019-01-14T08:10:07.909Z,72.60
2019-01-14T08:12:36.339Z,72.50
2019-01-14T08:15:10.842Z,72.20
2019-01-14T08:17:39.285Z,71.90
2019-01-14T08:20:09.948Z,71.80
2019-01-14T08:22:38.394Z,71.10
2019-01-14T08:25:09.732Z,71.20
2019-01-14T08:27:38.157Z,71.60
2019-01-14T08:30:09.628Z,71.30
2019-01-14T08:32:38.400Z,71.60
2019-01-14T08:35:07.490Z,71.50
2019-01-14T08:37:36.303Z,71.70
2019-01-14T08:40:13.021Z,71.80
2019-01-14T08:42:41.761Z,71.90
2019-01-14T08:45:11.288Z,72.20
2019-01-14T08:47:39.727Z,72.70
2019-01-14T08:50:11.099Z,72.80
2019-01-14T08:52:39.597Z,73.30
2019-01-14T08:55:08.075Z,73.90
2019-01-14T08:57:36.687Z,74.80
2019-01-14T09:00:08.332Z,75.10
2019-01-14T09:02:36.842Z,75.80
2019-01-14T09:05:07.234Z,77.50
2019-01-14T09:07:35.700Z,76.80
2019-01-14T09:10:07.834Z,77.60
2019-01-14T09:12:36.366Z,77.50
2019-01-14T09:15:07.905Z,77.20
2019-01-14T09:17:36.364Z,78.00
2019-01-14T09:20:07.840Z,78.10
2019-01-14T09:22:36.248Z,79.00
2019-01-14T09:25:06.895Z,79.60
2019-01-14T09:27:35.613Z,80.30
2019-01-14T09:30:07.085Z,80.10
2019-01-14T09:32:35.496Z,80.10
2019-01-14T09:35:04.278Z,79.00
2019-01-14T09:37:32.692Z,78.90
2019-01-14T09:40:01.092Z,78.80
2019-01-14T09:42:29.519Z,80.10
2019-01-14T09:44:57.947Z,80.60
2019-01-14T09:47:26.637Z,81.40
2019-01-14T09:49:55.037Z,81.50
2019-01-14T09:52:23.449Z,81.50
2019-01-14T09:54:51.920Z,80.40
2019-01-14T09:57:20.352Z,81.00
2019-01-14T09:59:48.750Z,81.10
2019-01-14T10:02:17.434Z,81.30
2019-01-14T10:04:45.833Z,80.10
2019-01-14T10:07:14.276Z,80.10
2019-01-14T10:09:42.706Z,79.50
2019-01-14T10:12:11.120Z,79.40
2019-01-14T10:14:39.599Z,79.40
2019-01-14T10:17:08.212Z,79.60
2019-01-14T10:19:36.667Z,78.90
2019-01-14T10:22:05.220Z,78.80
2019-01-14T10:24:33.643Z,78.70
2019-01-14T10:27:02.075Z,78.80
2019-01-14T10:29:30.536Z,79.40
2019-01-14T10:31:58.941Z,79.70
2019-01-14T10:34:27.373Z,79.40
2019-01-14T10:36:55.857Z,77.90
2019-01-14T10:39:24.288Z,77.30
2019-01-14T10:41:52.733Z,76.80
2019-01-14T10:44:21.173Z,77.80
2019-01-14T10:46:49.576Z,77.50
2019-01-14T10:49:18.016Z,77.10
2019-01-14T10:51:46.426Z,75.90
2019-01-14T10:54:14.834Z,76.30
2019-01-14T10:56:44.186Z,76.30
2019-01-14T10:59:12.916Z,75.10
2019-01-14T11:01:41.317Z,73.90
2019-01-14T11:04:10.118Z,73.50
2019-01-14T11:06:38.798Z,74.20
2019-01-14T11:09:09.653Z,73.80
2019-01-14T11:11:38.813Z,72.60
2019-01-14T11:14:07.230Z,71.70
2019-01-14T11:16:35.690Z,72.20
2019-01-14T11:19:04.883Z,72.30
2019-01-14T11:21:33.362Z,71.90
2019-01-14T11:24:01.854Z,72.60
2019-01-14T11:26:30.261Z,72.60
2019-01-14T11:28:58.682Z,73.80
2019-01-14T11:31:27.101Z,74.10
2019-01-14T11:33:55.527Z,75.00
2019-01-14T11:36:23.991Z,75.60
2019-01-14T11:38:52.513Z,76.10
2019-01-14T11:41:20.909Z,76.40
2019-01-14T11:43:49.328Z,76.70
2019-01-14T11:46:17.769Z,77.20
2019-01-14T11:48:46.191Z,77.30
2019-01-14T11:51:14.624Z,78.40
2019-01-14T11:53:43.092Z,78.10
2019-01-14T11:56:11.485Z,78.60
2019-01-14T11:58:39.927Z,78.00
2019-01-14T12:01:08.449Z,78.10
2019-01-14T12:03:36.912Z,77.90
2019-01-14T12:06:05.329Z,77.20
2019-01-14T12:08:33.781Z,77.50
2019-01-14T12:11:02.263Z,77.50
2019-01-14T12:13:31.023Z,76.60
2019-01-14T12:15:59.441Z,76.80
2019-01-14T12:18:28.190Z,77.00
2019-01-14T12:20:56.645Z,77.10
2019-01-14T12:23:25.050Z,77.50
2019-01-14T12:25:53.478Z,77.70
2019-01-14T12:28:21.897Z,78.80
2019-01-14T12:30:50.351Z,78.30
2019-01-14T12:33:18.835Z,78.10
2019-01-14T12:35:47.281Z,77.20
2019-01-14T12:38:15.764Z,78.20
2019-01-14T12:40:44.201Z,79.60
2019-01-14T12:43:12.577Z,80.00
2019-01-14T12:45:40.985Z,80.00
2019-01-14T12:48:09.403Z,80.20
2019-01-14T12:50:37.805Z,80.30
2019-01-14T12:53:06.268Z,81.10
2019-01-14T12:55:34.777Z,80.90
2019-01-14T12:58:03.180Z,80.30
2019-01-14T13:00:31.734Z,80.10
2019-01-14T13:03:00.194Z,79.20
2019-01-14T13:05:29.854Z,79.30
2019-01-14T13:07:58.248Z,79.50
2019-01-14T13:10:26.681Z,78.80
2019-01-14T13:12:55.093Z,78.40
2019-01-14T13:15:25.386Z,78.10
2019-01-14T13:17:53.862Z,78.50
2019-01-14T13:20:23.166Z,77.60
2019-01-14T13:22:52.388Z,77.70
2019-01-14T13:25:20.920Z,78.10
2019-01-14T13:27:49.499Z,78.10
2019-01-14T13:30:23.137Z,78.20
2019-01-14T13:32:51.677Z,77.70
2019-01-14T13:35:20.149Z,76.40
2019-01-14T13:37:49.017Z,77.30
2019-01-14T13:40:17.413Z,78.00
2019-01-14T13:42:45.828Z,76.30
2019-01-14T13:45:17.292Z,73.60
2019-01-14T13:47:45.777Z,73.80
2019-01-14T13:50:16.809Z,75.20
2019-01-14T13:52:45.223Z,76.60
2019-01-14T13:55:14.502Z,78.50
2019-01-14T13:57:42.982Z,79.80
2019-01-14T14:00:14.688Z,81.00
2019-01-14T14:02:43.099Z,82.50
2019-01-14T14:05:11.489Z,84.70
2019-01-14T14:07:39.925Z,86.10
2019-01-14T14:10:14.337Z,86.50
2019-01-14T14:12:42.765Z,87.30
2019-01-14T14:15:14.012Z,87.30
2019-01-14T14:17:42.493Z,88.10
2019-01-14T14:20:14.390Z,88.50
2019-01-14T14:22:42.872Z,87.90
2019-01-14T14:25:11.754Z,86.60
2019-01-14T14:27:40.202Z,86.80
2019-01-14T14:30:23.593Z,86.10
2019-01-14T14:32:52.040Z,85.70
2019-01-14T14:35:20.429Z,85.60
2019-01-14T14:37:48.847Z,86.10
2019-01-14T14:40:17.269Z,87.00
2019-01-14T14:42:45.710Z,88.00
2019-01-14T14:45:15.550Z,87.80
2019-01-14T14:47:44.005Z,87.80
2019-01-14T14:50:15.205Z,88.40
2019-01-14T14:52:43.624Z,88.10
2019-01-14T14:55:12.046Z,87.30
2019-01-14T14:57:40.737Z,87.70
2019-01-14T15:00:15.031Z,86.30
2019-01-14T15:02:43.417Z,85.90
2019-01-14T15:05:12.577Z,85.60
2019-01-14T15:07:40.978Z,84.60
2019-01-14T15:10:12.715Z,85.00
2019-01-14T15:12:41.289Z,84.80
2019-01-14T15:15:12.805Z,85.40
2019-01-14T15:17:41.328Z,84.70
2019-01-14T15:20:12.808Z,84.40
2019-01-14T15:22:41.242Z,84.60
2019-01-14T15:25:09.668Z,84.80
2019-01-14T15:27:38.066Z,85.50
2019-01-14T15:30:12.873Z,85.80
2019-01-14T15:32:41.709Z,85.50
2019-01-14T15:35:10.221Z,85.30
2019-01-14T15:37:38.642Z,84.10
2019-01-14T15:40:10.136Z,84.10
2019-01-14T15:42:38.533Z,84.30
2019-01-14T15:45:10.147Z,83.10
2019-01-14T15:47:38.564Z,82.90
2019-01-14T15:50:09.414Z,83.40
2019-01-14T15:52:37.882Z,83.50
2019-01-14T15:55:09.418Z,84.10
2019-01-14T15:57:37.843Z,83.20
2019-01-14T16:00:09.376Z,83.10
2019-01-14T16:02:38.141Z,82.70
2019-01-14T16:05:07.477Z,82.50
2019-01-14T16:07:35.918Z,82.80
2019-01-14T16:10:10.712Z,81.60
2019-01-14T16:12:37.395Z,82.10
2019-01-14T16:15:07.929Z,82.60
2019-01-14T16:17:36.361Z,82.80
2019-01-14T16:20:08.577Z,82.70
2019-01-14T16:22:37.009Z,82.90
2019-01-14T16:25:06.691Z,82.50
2019-01-14T16:27:35.165Z,82.30
2019-01-14T16:30:05.404Z,82.70
2019-01-14T16:32:34.158Z,82.60
2019-01-14T16:35:02.645Z,82.70
2019-01-14T16:37:31.075Z,83.30
2019-01-14T16:39:59.809Z,83.60
2019-01-14T16:42:28.303Z,83.00
2019-01-14T16:44:56.711Z,82.90
2019-01-14T16:47:25.127Z,83.70
2019-01-14T16:49:53.520Z,83.70
2019-01-14T16:52:21.949Z,83.90
2019-01-14T16:54:50.734Z,84.10
2019-01-14T16:57:19.494Z,83.80
2019-01-14T16:59:47.904Z,83.30
2019-01-14T17:02:16.330Z,82.70
2019-01-14T17:04:44.752Z,82.20
2019-01-14T17:07:13.182Z,81.20
2019-01-14T17:09:41.598Z,80.90
2019-01-14T17:12:10.075Z,81.30
2019-01-14T17:14:38.477Z,80.40
2019-01-14T17:17:06.886Z,79.40
2019-01-14T17:19:35.638Z,79.60
2019-01-14T17:22:04.089Z,80.10
2019-01-14T17:24:32.603Z,80.00
2019-01-14T17:27:01.018Z,79.80
2019-01-14T17:29:29.482Z,79.40
2019-01-14T17:31:57.871Z,79.20
2019-01-14T17:34:26.270Z,78.60
2019-01-14T17:36:54.669Z,78.40
2019-01-14T17:39:23.131Z,77.70
2019-01-14T17:41:51.930Z,78.20
2019-01-14T17:44:20.417Z,77.80
2019-01-14T17:46:48.823Z,77.10
2019-01-14T17:49:17.523Z,77.40
2019-01-14T17:51:45.972Z,77.40
2019-01-14T17:54:14.404Z,77.20
2019-01-14T17:56:42.803Z,76.60
2019-01-14T17:59:11.217Z,75.70
2019-01-14T18:01:39.656Z,76.70
2019-01-14T18:04:08.096Z,75.40
2019-01-14T18:06:36.493Z,75.30
2019-01-14T18:09:07.410Z,75.90
2019-01-14T18:11:35.845Z,75.60
2019-01-14T18:14:04.698Z,75.40
2019-01-14T18:16:33.116Z,75.30
2019-01-14T18:19:01.546Z,74.80
2019-01-14T18:21:29.944Z,75.00
2019-01-14T18:23:58.377Z,76.00
2019-01-14T18:26:26.776Z,75.00
2019-01-14T18:28:55.225Z,75.20
2019-01-14T18:31:23.731Z,75.40
2019-01-14T18:33:52.143Z,73.90
2019-01-14T18:36:20.608Z,74.20
2019-01-14T18:38:49.033Z,74.60
2019-01-14T18:41:17.445Z,73.50
2019-01-14T18:43:45.839Z,73.70
2019-01-14T18:46:14.682Z,73.10
2019-01-14T18:48:43.137Z,73.50
2019-01-14T18:51:11.572Z,73.60
2019-01-14T18:53:39.971Z,73.00
2019-01-14T18:56:08.417Z,72.70
2019-01-14T18:58:36.808Z,72.30
2019-01-14T19:01:05.228Z,72.70
2019-01-14T19:03:33.612Z,72.90
2019-01-14T19:06:02.084Z,72.80
2019-01-14T19:08:30.552Z,73.50
2019-01-14T19:10:58.986Z,73.60
2019-01-14T19:13:27.415Z,72.90
2019-01-14T19:15:55.845Z,73.30
2019-01-14T19:18:24.263Z,72.00
2019-01-14T19:20:52.648Z,72.90
2019-01-14T19:23:21.383Z,72.70
2019-01-14T19:25:49.815Z,73.00
2019-01-14T19:28:18.274Z,71.10
2019-01-14T19:30:46.730Z,72.00
2019-01-14T19:33:15.126Z,71.60
2019-01-14T19:35:43.556Z,71.60
2019-01-14T19:38:11.940Z,72.10
2019-01-14T19:40:40.373Z,71.90
2019-01-14T19:43:08.796Z,72.60
2019-01-14T19:45:37.192Z,72.90
2019-01-14T19:48:05.596Z,72.60
2019-01-14T19:50:34.040Z,72.10
2019-01-14T19:53:02.459Z,72.10
2019-01-14T19:55:30.898Z,72.30
2019-01-14T19:57:59.330Z,72.00
2019-01-14T20:00:28.447Z,71.60
2019-01-14T20:02:57.406Z,71.90
2019-01-14T20:05:25.914Z,72.60
2019-01-14T20:07:55.012Z,72.70
2019-01-14T20:10:23.444Z,72.80
2019-01-14T20:12:51.928Z,72.80
2019-01-14T20:15:21.763Z,72.50
2019-01-14T20:17:50.328Z,71.90
2019-01-14T20:20:18.758Z,71.50
2019-01-14T20:22:47.239Z,71.50
2019-01-14T20:25:15.779Z,71.30
2019-01-14T20:27:44.184Z,71.50
2019-01-14T20:30:19.116Z,71.70
2019-01-14T20:32:47.969Z,71.40
2019-01-14T20:35:16.509Z,71.50
2019-01-14T20:37:44.971Z,71.00
2019-01-14T20:40:15.217Z,71.10
2019-01-14T20:42:43.858Z,71.40
2019-01-14T20:45:15.125Z,71.70
2019-01-14T20:47:43.690Z,72.30
2019-01-14T20:50:14.446Z,71.00
2019-01-14T20:52:43.091Z,71.70
2019-01-14T20:55:11.570Z,71.00
2019-01-14T20:57:40.004Z,71.00
2019-01-14T21:00:17.015Z,70.10
2019-01-14T21:02:45.641Z,69.90
2019-01-14T21:05:14.545Z,70.20
2019-01-14T21:07:42.968Z,70.10
2019-01-14T21:10:13.313Z,69.60
2019-01-14T21:12:41.713Z,70.00
2019-01-14T21:15:11.874Z,70.20
2019-01-14T21:17:40.354Z,69.60
2019-01-14T21:20:17.882Z,70.10
2019-01-14T21:22:47.270Z,69.60
2019-01-14T21:25:16.067Z,69.80
2019-01-14T21:27:44.473Z,68.80
2019-01-14T21:30:20.822Z,69.50
2019-01-14T21:32:49.216Z,69.50
2019-01-14T21:35:18.048Z,69.80
2019-01-14T21:37:46.505Z,69.20
2019-01-14T21:40:14.926Z,68.90
2019-01-14T21:42:44.266Z,69.20
2019-01-14T21:45:14.232Z,69.40
2019-01-14T21:47:42.713Z,68.90
2019-01-14T21:50:13.646Z,69.70
2019-01-14T21:52:43.710Z,70.10
2019-01-14T21:55:14.653Z,69.50
2019-01-14T21:57:43.065Z,69.20
2019-01-14T22:00:14.324Z,69.50
2019-01-14T22:02:42.752Z,69.70
2019-01-14T22:05:11.237Z,70.00
2019-01-14T22:07:40.028Z,69.00
2019-01-14T22:10:11.783Z,68.40
2019-01-14T22:12:40.450Z,69.20
2019-01-14T22:15:10.600Z,68.90
2019-01-14T22:17:39.100Z,69.20
2019-01-14T22:20:16.476Z,69.60
2019-01-14T22:22:44.964Z,69.50
2019-01-14T22:25:13.443Z,68.70
2019-01-14T22:27:41.844Z,68.60
2019-01-14T22:30:19.159Z,68.20
2019-01-14T22:32:47.865Z,67.90
2019-01-14T22:35:16.260Z,68.40
2019-01-14T22:37:44.685Z,67.10
2019-01-14T22:40:14.939Z,66.80
2019-01-14T22:42:43.445Z,67.50
2019-01-14T22:45:13.039Z,67.50
2019-01-14T22:47:41.454Z,67.20
2019-01-14T22:50:15.050Z,67.50
2019-01-14T22:52:43.486Z,67.60
2019-01-14T22:55:11.963Z,67.30
2019-01-14T22:57:40.389Z,67.10
2019-01-14T23:00:28.605Z,67.10
2019-01-14T23:02:57.081Z,67.70
2019-01-14T23:05:25.525Z,67.40
2019-01-14T23:07:53.940Z,67.50
2019-01-14T23:10:22.338Z,67.20
2019-01-14T23:12:50.745Z,67.50
2019-01-14T23:15:19.238Z,68.00
2019-01-14T23:17:47.713Z,68.40
2019-01-14T23:20:16.104Z,67.90
2019-01-14T23:22:44.545Z,67.90
2019-01-14T23:25:12.929Z,68.30
2019-01-14T23:27:41.335Z,68.50
2019-01-14T23:30:11.370Z,68.20
2019-01-14T23:32:39.772Z,68.40
2019-01-14T23:35:08.799Z,68.80
2019-01-14T23:37:39.524Z,68.20
2019-01-14T23:40:09.273Z,67.80
2019-01-14T23:42:37.786Z,67.70
2019-01-14T23:45:09.147Z,67.50
2019-01-14T23:47:37.558Z,66.90
2019-01-14T23:50:07.817Z,66.20
2019-01-14T23:52:36.222Z,66.50
2019-01-14T23:55:06.097Z,66.30
2019-01-14T23:57:34.499Z,66.50
